createdAt,value
2018-07-31T00:00:36.668Z,23.83
2018-07-31T00:03:05.345Z,23.82
2018-07-31T00:05:34.763Z,23.75
2018-07-31T00:08:03.423Z,23.62
2018-07-31T00:10:32.619Z,23.60
2018-07-31T00:13:01.208Z,23.47
2018-07-31T00:15:30.092Z,23.47
2018-07-31T00:17:58.934Z,23.43
2018-07-31T00:20:28.119Z,23.38
2018-07-31T00:22:56.760Z,23.33
2018-07-31T00:25:25.602Z,23.37
2018-07-31T00:27:54.715Z,23.23
2018-07-31T00:30:23.342Z,23.20
2018-07-31T00:32:51.936Z,23.08
2018-07-31T00:35:20.505Z,23.17
2018-07-31T00:37:49.349Z,23.15
2018-07-31T00:40:18.207Z,23.20
2018-07-31T00:42:46.855Z,23.10
2018-07-31T00:45:15.553Z,23.05
2018-07-31T00:47:44.483Z,22.97
2018-07-31T00:50:13.427Z,22.99
2018-07-31T00:52:42.015Z,22.90
2018-07-31T00:55:10.739Z,22.87
2018-07-31T00:57:39.286Z,22.87
2018-07-31T01:00:07.999Z,22.90
2018-07-31T01:02:36.647Z,22.84
2018-07-31T01:05:05.839Z,22.81
2018-07-31T01:07:34.537Z,22.71
2018-07-31T01:10:03.401Z,22.71
2018-07-31T01:12:32.016Z,22.64
2018-07-31T01:15:00.739Z,22.63
2018-07-31T01:17:30.417Z,22.50
2018-07-31T01:19:59.359Z,22.57
2018-07-31T01:22:27.983Z,22.58
2018-07-31T01:24:57.426Z,22.58
2018-07-31T01:27:26.199Z,22.60
2018-07-31T01:32:22.780Z,22.62
2018-07-31T01:34:51.476Z,22.58
2018-07-31T01:37:20.115Z,22.50
2018-07-31T01:39:48.919Z,22.36
2018-07-31T01:42:17.797Z,22.16
2018-07-31T01:44:46.523Z,22.23
2018-07-31T01:47:15.748Z,22.11
2018-07-31T01:49:44.680Z,22.05
2018-07-31T01:52:13.771Z,22.15
2018-07-31T01:54:42.822Z,22.05
2018-07-31T01:57:11.427Z,22.22
2018-07-31T01:59:40.048Z,22.04
2018-07-31T02:02:09.332Z,22.13
2018-07-31T02:04:37.969Z,22.15
2018-07-31T02:07:06.584Z,22.15
2018-07-31T02:09:35.640Z,22.09
2018-07-31T02:12:04.383Z,22.02
2018-07-31T02:14:33.427Z,21.97
2018-07-31T02:17:02.083Z,21.83
2018-07-31T02:19:30.938Z,21.86
2018-07-31T02:21:59.651Z,21.97
2018-07-31T02:24:28.543Z,21.94
2018-07-31T02:26:57.095Z,21.86
2018-07-31T02:30:29.122Z,21.83
2018-07-31T02:32:58.780Z,21.85
2018-07-31T02:35:27.392Z,21.77
2018-07-31T02:37:55.943Z,21.67
2018-07-31T02:40:24.830Z,21.63
2018-07-31T02:42:53.619Z,21.64
2018-07-31T02:45:22.243Z,21.65
2018-07-31T02:47:50.891Z,21.62
2018-07-31T02:50:19.468Z,21.68
2018-07-31T02:52:48.075Z,21.63
2018-07-31T02:55:16.635Z,21.63
2018-07-31T02:57:45.219Z,21.61
2018-07-31T03:00:13.949Z,21.49
2018-07-31T03:02:42.497Z,21.54
2018-07-31T03:05:12.644Z,21.47
2018-07-31T03:07:41.841Z,21.28
2018-07-31T03:10:11.656Z,21.16
2018-07-31T03:12:40.316Z,21.18
2018-07-31T03:15:10.723Z,21.18
2018-07-31T03:17:39.315Z,21.30
2018-07-31T03:20:10.217Z,21.23
2018-07-31T03:22:38.864Z,21.12
2018-07-31T03:25:07.524Z,21.10
2018-07-31T03:27:36.131Z,21.01
2018-07-31T03:30:05.307Z,21.12
2018-07-31T03:32:33.991Z,21.19
2018-07-31T03:35:02.829Z,21.14
2018-07-31T03:37:31.595Z,21.05
2018-07-31T03:40:00.134Z,21.02
2018-07-31T03:42:28.764Z,20.95
2018-07-31T03:44:57.543Z,21.08
2018-07-31T03:47:26.116Z,20.97
2018-07-31T03:49:55.169Z,20.86
2018-07-31T03:52:23.804Z,20.90
2018-07-31T03:54:52.903Z,20.85
2018-07-31T03:57:22.022Z,20.74
2018-07-31T03:59:50.559Z,20.74
2018-07-31T04:02:19.491Z,20.62
2018-07-31T04:04:48.292Z,20.65
2018-07-31T04:07:16.828Z,20.64
2018-07-31T04:09:45.455Z,20.49
2018-07-31T04:12:14.532Z,20.55
2018-07-31T04:14:43.191Z,20.50
2018-07-31T04:17:12.019Z,20.54
2018-07-31T04:19:41.324Z,20.47
2018-07-31T04:22:10.055Z,20.44
2018-07-31T04:24:39.287Z,20.43
2018-07-31T04:27:07.940Z,20.63
2018-07-31T04:29:36.519Z,20.54
2018-07-31T04:32:05.178Z,20.62
2018-07-31T04:34:34.267Z,20.67
2018-07-31T04:37:03.111Z,20.72
2018-07-31T04:39:31.801Z,20.69
2018-07-31T04:42:00.617Z,20.80
2018-07-31T04:44:29.263Z,20.84
2018-07-31T04:46:57.852Z,20.94
2018-07-31T04:49:26.884Z,21.16
2018-07-31T04:51:55.411Z,21.34
2018-07-31T04:54:24.336Z,21.36
2018-07-31T04:56:53.337Z,21.51
2018-07-31T04:59:21.887Z,21.46
2018-07-31T05:01:50.605Z,21.39
2018-07-31T05:04:19.368Z,21.45
2018-07-31T05:06:48.399Z,21.47
2018-07-31T05:09:17.039Z,21.65
2018-07-31T05:11:45.665Z,21.68
2018-07-31T05:14:14.523Z,21.65
2018-07-31T05:16:43.205Z,21.64
2018-07-31T05:19:12.029Z,21.76
2018-07-31T05:21:41.284Z,21.87
2018-07-31T05:24:09.908Z,21.94
2018-07-31T05:26:38.603Z,22.09
2018-07-31T05:29:07.247Z,22.17
2018-07-31T05:31:35.767Z,22.20
2018-07-31T05:34:04.760Z,22.28
2018-07-31T05:36:33.700Z,22.37
2018-07-31T05:39:02.532Z,22.59
2018-07-31T05:41:31.534Z,22.72
2018-07-31T05:44:00.692Z,22.77
2018-07-31T05:46:29.285Z,22.93
2018-07-31T05:48:58.052Z,23.13
2018-07-31T05:51:26.661Z,23.06
2018-07-31T05:53:55.231Z,23.14
2018-07-31T05:56:24.056Z,23.45
2018-07-31T05:58:53.216Z,23.37
2018-07-31T06:01:22.085Z,23.62
2018-07-31T06:03:51.166Z,23.49
2018-07-31T06:06:19.982Z,23.52
2018-07-31T06:08:48.571Z,23.65
2018-07-31T06:11:17.755Z,23.91
2018-07-31T06:13:46.628Z,24.05
2018-07-31T06:16:15.172Z,24.41
2018-07-31T06:18:44.080Z,24.53
2018-07-31T06:21:12.721Z,24.55
2018-07-31T06:23:41.611Z,24.77
2018-07-31T06:26:10.693Z,24.98
2018-07-31T06:28:40.136Z,25.14
2018-07-31T06:31:09.216Z,25.33
2018-07-31T06:33:37.912Z,25.67
2018-07-31T06:36:06.599Z,26.03
2018-07-31T06:38:35.369Z,26.02
2018-07-31T06:41:04.203Z,26.48
2018-07-31T06:43:32.869Z,26.83
2018-07-31T06:46:01.479Z,27.47
2018-07-31T06:48:30.250Z,27.78
2018-07-31T06:50:58.899Z,28.04
2018-07-31T06:53:27.592Z,28.34
2018-07-31T06:55:56.627Z,28.75
2018-07-31T06:58:25.391Z,29.21
2018-07-31T07:00:53.981Z,29.15
2018-07-31T07:03:22.716Z,28.92
2018-07-31T07:05:51.249Z,29.50
2018-07-31T07:08:20.000Z,29.96
2018-07-31T07:10:48.836Z,30.36
2018-07-31T07:13:17.960Z,30.87
2018-07-31T07:15:46.570Z,31.27
2018-07-31T07:18:15.610Z,31.68
2018-07-31T07:20:44.343Z,32.20
2018-07-31T07:23:13.280Z,32.52
2018-07-31T07:25:42.487Z,32.69
2018-07-31T07:28:11.292Z,33.36
2018-07-31T07:30:40.014Z,33.82
2018-07-31T07:33:08.968Z,33.87
2018-07-31T07:35:37.592Z,34.48
2018-07-31T07:38:06.448Z,34.02
2018-07-31T07:40:35.320Z,33.33
2018-07-31T07:43:04.214Z,33.65
2018-07-31T07:45:32.952Z,33.77
2018-07-31T07:48:01.783Z,33.92
2018-07-31T07:50:30.484Z,34.55
2018-07-31T07:52:59.128Z,34.90
2018-07-31T07:55:28.152Z,35.48
2018-07-31T07:57:57.056Z,36.04
2018-07-31T08:00:25.674Z,36.57
2018-07-31T08:02:55.045Z,36.81
2018-07-31T08:05:23.670Z,37.13
2018-07-31T08:07:52.345Z,37.52
2018-07-31T08:10:21.100Z,37.78
2018-07-31T08:12:49.845Z,38.16
2018-07-31T08:15:18.416Z,38.36
2018-07-31T08:17:47.360Z,38.63
2018-07-31T08:20:16.264Z,38.60
2018-07-31T08:22:44.904Z,39.06
2018-07-31T08:25:13.940Z,39.01
2018-07-31T08:27:42.565Z,39.22
2018-07-31T08:30:11.200Z,39.12
2018-07-31T08:32:40.167Z,39.29
2018-07-31T08:35:08.965Z,39.70
2018-07-31T08:37:37.636Z,39.81
2018-07-31T08:40:06.383Z,39.41
2018-07-31T08:42:34.999Z,39.47
2018-07-31T08:45:03.721Z,39.76
2018-07-31T08:47:32.759Z,40.10
2018-07-31T08:50:01.509Z,40.46
2018-07-31T08:52:30.200Z,41.09
2018-07-31T08:54:59.068Z,40.39
2018-07-31T08:57:28.116Z,40.81
2018-07-31T08:59:56.848Z,40.26
2018-07-31T09:02:25.636Z,39.89
2018-07-31T09:04:54.484Z,40.30
2018-07-31T09:07:23.083Z,40.52
2018-07-31T09:09:52.004Z,41.31
2018-07-31T09:12:20.744Z,41.25
2018-07-31T09:14:49.417Z,42.06
2018-07-31T09:17:18.335Z,42.97
2018-07-31T09:19:46.904Z,42.74
2018-07-31T09:22:15.554Z,43.73
2018-07-31T09:24:44.434Z,42.69
2018-07-31T09:27:13.227Z,43.17
2018-07-31T09:29:41.843Z,43.30
2018-07-31T09:32:10.588Z,44.37
2018-07-31T09:34:44.463Z,44.67
2018-07-31T09:37:13.392Z,44.47
2018-07-31T09:39:42.031Z,44.99
2018-07-31T09:42:10.939Z,45.20
2018-07-31T09:44:40.024Z,45.46
2018-07-31T09:47:08.584Z,45.03
2018-07-31T09:49:37.295Z,45.85
2018-07-31T09:52:07.548Z,46.30
2018-07-31T09:54:36.353Z,46.38
2018-07-31T09:57:05.016Z,46.72
2018-07-31T09:59:33.943Z,47.18
2018-07-31T10:02:02.480Z,47.73
2018-07-31T10:04:31.348Z,47.78
2018-07-31T10:07:00.009Z,48.40
2018-07-31T10:09:28.612Z,48.92
2018-07-31T10:11:57.327Z,48.15
2018-07-31T10:14:26.348Z,47.92
2018-07-31T10:16:55.169Z,48.44
2018-07-31T10:19:23.760Z,48.52
2018-07-31T10:21:52.547Z,48.60
2018-07-31T10:24:21.769Z,49.51
2018-07-31T10:26:50.555Z,49.14
2018-07-31T10:29:19.348Z,49.36
2018-07-31T10:31:48.314Z,49.86
2018-07-31T10:34:17.306Z,48.77
2018-07-31T10:36:46.084Z,50.17
2018-07-31T10:39:14.787Z,50.45
2018-07-31T10:41:43.532Z,50.98
2018-07-31T10:44:12.820Z,51.14
2018-07-31T10:46:41.603Z,52.49
2018-07-31T10:49:10.344Z,51.65
2018-07-31T10:51:38.953Z,51.92
2018-07-31T10:54:07.775Z,51.22
2018-07-31T10:56:36.402Z,51.04
2018-07-31T10:59:05.029Z,51.65
2018-07-31T11:01:33.671Z,51.43
2018-07-31T11:04:02.437Z,51.99
2018-07-31T11:06:31.449Z,51.14
2018-07-31T11:09:00.104Z,51.59
2018-07-31T11:11:28.716Z,51.10
2018-07-31T11:13:57.459Z,51.64
2018-07-31T11:16:26.159Z,52.07
2018-07-31T11:18:55.147Z,52.62
2018-07-31T11:21:23.812Z,52.58
2018-07-31T11:23:52.515Z,53.31
2018-07-31T11:26:21.309Z,53.63
2018-07-31T11:28:50.027Z,52.30
2018-07-31T11:31:18.625Z,52.64
2018-07-31T11:33:47.360Z,51.82
2018-07-31T11:36:16.799Z,52.26
2018-07-31T11:38:45.536Z,52.02
2018-07-31T11:41:14.341Z,51.17
2018-07-31T11:43:43.098Z,51.63
2018-07-31T11:46:11.776Z,51.99
2018-07-31T11:48:40.463Z,51.72
2018-07-31T11:51:09.588Z,52.22
2018-07-31T11:53:38.220Z,52.19
2018-07-31T11:56:06.804Z,52.18
2018-07-31T11:58:35.649Z,52.09
2018-07-31T12:01:04.624Z,52.17
2018-07-31T12:03:33.276Z,52.23
2018-07-31T12:06:02.004Z,51.64
2018-07-31T12:08:33.316Z,52.59
2018-07-31T12:11:02.127Z,52.42
2018-07-31T12:13:30.824Z,52.16
2018-07-31T12:16:00.545Z,52.77
2018-07-31T12:18:29.571Z,52.52
2018-07-31T12:20:58.513Z,52.11
2018-07-31T12:23:27.164Z,51.76
2018-07-31T12:25:55.868Z,51.48
2018-07-31T12:28:24.429Z,52.57
2018-07-31T12:30:53.082Z,51.64
2018-07-31T12:33:21.724Z,51.50
2018-07-31T12:35:50.665Z,51.33
2018-07-31T12:38:19.463Z,52.11
2018-07-31T12:40:48.531Z,51.62
2018-07-31T12:43:17.267Z,52.32
2018-07-31T12:45:45.844Z,52.11
2018-07-31T12:48:14.845Z,52.41
2018-07-31T12:50:43.524Z,52.10
2018-07-31T12:53:12.228Z,51.83
2018-07-31T12:55:41.231Z,51.49
2018-07-31T12:58:10.024Z,53.02
2018-07-31T13:00:39.049Z,51.99
2018-07-31T13:03:07.925Z,51.51
2018-07-31T13:05:36.557Z,51.04
2018-07-31T13:08:05.212Z,50.95
2018-07-31T13:10:33.960Z,50.70
2018-07-31T13:13:02.722Z,50.89
2018-07-31T13:15:31.387Z,51.63
2018-07-31T13:18:00.088Z,50.74
2018-07-31T13:20:28.788Z,50.44
2018-07-31T13:22:58.489Z,50.56
2018-07-31T13:25:27.533Z,49.84
2018-07-31T13:27:56.245Z,50.06
2018-07-31T13:30:24.790Z,49.97
2018-07-31T13:32:53.688Z,51.33
2018-07-31T13:35:22.339Z,50.94
2018-07-31T13:37:51.091Z,50.63
2018-07-31T13:40:19.873Z,50.49
2018-07-31T13:42:48.628Z,50.64
2018-07-31T13:45:17.388Z,49.45
2018-07-31T13:47:46.124Z,49.54
2018-07-31T13:50:14.855Z,49.74
2018-07-31T13:52:43.569Z,49.86
2018-07-31T13:55:13.341Z,50.03
2018-07-31T13:57:42.667Z,50.51
2018-07-31T14:00:12.082Z,49.44
2018-07-31T14:02:41.156Z,50.30
2018-07-31T14:05:10.150Z,49.90
2018-07-31T14:07:38.913Z,48.91
2018-07-31T14:10:08.052Z,48.38
2018-07-31T14:12:36.966Z,48.53
2018-07-31T14:15:05.945Z,48.46
2018-07-31T14:17:35.568Z,48.95
2018-07-31T14:20:04.616Z,48.28
2018-07-31T14:22:33.591Z,48.42
2018-07-31T14:25:03.059Z,47.10
2018-07-31T14:27:32.470Z,47.59
2018-07-31T14:30:01.857Z,47.03
2018-07-31T14:32:31.733Z,46.80
2018-07-31T14:35:01.128Z,47.33
2018-07-31T14:37:30.113Z,47.36
2018-07-31T14:39:59.231Z,47.47
2018-07-31T14:42:29.102Z,47.66
2018-07-31T14:44:57.823Z,47.83
2018-07-31T14:47:27.033Z,48.60
2018-07-31T14:49:56.829Z,47.17
2018-07-31T14:52:26.046Z,46.37
2018-07-31T14:54:56.016Z,46.66
2018-07-31T14:57:24.635Z,46.87
2018-07-31T14:59:53.273Z,46.82
2018-07-31T15:02:22.913Z,47.28
2018-07-31T15:04:52.046Z,47.88
2018-07-31T15:07:21.527Z,47.38
2018-07-31T15:09:50.911Z,47.40
2018-07-31T15:12:20.016Z,46.72
2018-07-31T15:14:49.116Z,46.20
2018-07-31T15:17:17.723Z,45.50
2018-07-31T15:19:46.552Z,46.01
2018-07-31T15:22:15.639Z,45.97
2018-07-31T15:24:45.181Z,45.68
2018-07-31T15:27:14.201Z,45.20
2018-07-31T15:29:43.325Z,44.25
2018-07-31T15:32:12.842Z,43.72
2018-07-31T15:34:42.132Z,42.57
2018-07-31T15:37:11.058Z,42.09
2018-07-31T15:39:40.261Z,41.55
2018-07-31T15:42:09.018Z,41.09
2018-07-31T15:44:38.063Z,40.41
2018-07-31T15:47:07.460Z,39.69
2018-07-31T15:49:36.839Z,39.49
2018-07-31T15:52:06.228Z,39.52
2018-07-31T15:54:35.099Z,39.40
2018-07-31T15:57:04.178Z,39.13
2018-07-31T15:59:32.922Z,39.02
2018-07-31T16:02:02.408Z,38.81
2018-07-31T16:04:31.384Z,38.52
2018-07-31T16:07:00.202Z,38.46
2018-07-31T16:09:29.048Z,38.29
2018-07-31T16:11:57.989Z,38.16
2018-07-31T16:14:26.592Z,37.75
2018-07-31T16:16:56.440Z,37.26
2018-07-31T16:19:25.099Z,37.30
2018-07-31T16:21:53.935Z,37.14
2018-07-31T16:24:22.769Z,37.17
2018-07-31T16:26:51.352Z,37.25
2018-07-31T16:29:19.944Z,37.12
2018-07-31T16:31:49.075Z,37.17
2018-07-31T16:34:17.717Z,37.14
2018-07-31T16:36:46.503Z,37.07
2018-07-31T16:39:15.855Z,36.97
2018-07-31T16:41:45.177Z,36.95
2018-07-31T16:44:14.646Z,36.92
2018-07-31T16:46:43.969Z,36.85
2018-07-31T16:49:13.367Z,36.83
2018-07-31T16:51:43.065Z,36.81
2018-07-31T16:54:11.791Z,36.54
2018-07-31T16:56:40.495Z,36.59
2018-07-31T16:59:09.329Z,36.35
2018-07-31T17:01:38.092Z,36.39
2018-07-31T17:04:07.147Z,36.41
2018-07-31T17:06:36.231Z,36.32
2018-07-31T17:09:07.501Z,36.20
2018-07-31T17:11:37.400Z,36.07
2018-07-31T17:14:06.396Z,35.82
2018-07-31T17:16:35.175Z,35.86
2018-07-31T17:19:03.941Z,35.90
2018-07-31T17:21:32.819Z,35.61
2018-07-31T17:24:01.532Z,35.45
2018-07-31T17:26:30.400Z,35.50
2018-07-31T17:28:59.793Z,35.39
2018-07-31T17:31:28.650Z,35.39
2018-07-31T17:33:57.583Z,35.41
2018-07-31T17:36:26.680Z,35.23
2018-07-31T17:38:56.124Z,35.05
2018-07-31T17:41:24.932Z,35.05
2018-07-31T17:43:53.640Z,35.20
2018-07-31T17:46:22.482Z,35.35
2018-07-31T17:48:51.460Z,35.19
2018-07-31T17:51:20.149Z,35.27
2018-07-31T17:53:49.396Z,35.37
2018-07-31T17:56:19.075Z,35.32
2018-07-31T17:58:48.469Z,35.08
2018-07-31T18:01:18.118Z,35.27
2018-07-31T18:03:47.302Z,35.15
2018-07-31T18:06:16.631Z,34.99
2018-07-31T18:08:45.836Z,35.09
2018-07-31T18:11:14.950Z,35.07
2018-07-31T18:13:43.784Z,35.06
2018-07-31T18:16:13.229Z,34.82
2018-07-31T18:18:43.978Z,34.68
2018-07-31T18:21:12.800Z,34.54
2018-07-31T18:23:42.218Z,34.44
2018-07-31T18:26:11.449Z,34.41
2018-07-31T18:28:41.301Z,34.35
2018-07-31T18:31:10.800Z,34.25
2018-07-31T18:33:40.389Z,34.15
2018-07-31T18:36:10.070Z,33.98
2018-07-31T18:38:39.283Z,34.01
2018-07-31T18:41:08.232Z,33.89
2018-07-31T18:43:36.892Z,33.83
2018-07-31T18:46:05.799Z,33.73
2018-07-31T18:48:34.629Z,33.49
2018-07-31T18:51:04.149Z,33.45
2018-07-31T18:53:33.159Z,33.39
2018-07-31T18:56:01.959Z,33.46
2018-07-31T18:58:36.385Z,33.21
2018-07-31T19:01:08.768Z,33.24
2018-07-31T19:03:38.014Z,33.23
2018-07-31T19:06:08.172Z,33.17
2018-07-31T19:08:38.200Z,33.09
2018-07-31T19:11:06.818Z,32.98
2018-07-31T19:13:35.633Z,33.00
2018-07-31T19:16:04.532Z,33.01
2018-07-31T19:18:33.243Z,32.90
2018-07-31T19:21:07.331Z,32.92
2018-07-31T19:23:35.969Z,32.85
2018-07-31T19:26:04.891Z,32.83
2018-07-31T19:28:34.030Z,32.68
2018-07-31T19:31:02.967Z,32.57
2018-07-31T19:33:32.683Z,32.29
2018-07-31T19:36:01.813Z,31.79
2018-07-31T19:38:30.543Z,31.24
2018-07-31T19:40:59.201Z,30.68
2018-07-31T19:43:28.671Z,30.81
2018-07-31T19:45:57.556Z,30.44
2018-07-31T19:48:26.224Z,29.93
2018-07-31T19:50:55.542Z,29.71
2018-07-31T19:53:24.359Z,29.52
2018-07-31T19:55:53.144Z,29.18
2018-07-31T19:58:21.981Z,28.89
2018-07-31T20:00:51.040Z,28.85
2018-07-31T20:03:19.783Z,28.82
2018-07-31T20:05:48.787Z,28.89
2018-07-31T20:08:17.824Z,28.82
2018-07-31T20:10:46.732Z,28.88
2018-07-31T20:13:15.552Z,29.05
2018-07-31T20:15:44.251Z,29.14
2018-07-31T20:18:13.216Z,29.13
2018-07-31T20:20:41.941Z,29.14
2018-07-31T20:23:10.572Z,29.00
2018-07-31T20:25:39.624Z,28.87
2018-07-31T20:28:08.346Z,28.73
2018-07-31T20:30:37.370Z,28.77
2018-07-31T20:33:06.040Z,28.71
2018-07-31T20:35:34.665Z,28.87
2018-07-31T20:38:03.423Z,28.97
2018-07-31T20:40:32.057Z,29.03
2018-07-31T20:43:00.692Z,29.14
2018-07-31T20:45:29.900Z,29.16
2018-07-31T20:47:59.330Z,29.11
2018-07-31T20:50:28.308Z,29.06
2018-07-31T20:52:57.294Z,29.02
2018-07-31T20:55:26.074Z,28.96
2018-07-31T20:57:54.798Z,29.01
2018-07-31T21:00:23.475Z,29.03
2018-07-31T21:02:52.828Z,29.03
2018-07-31T21:05:22.569Z,29.04
2018-07-31T21:07:51.441Z,29.05
2018-07-31T21:10:20.125Z,29.05
2018-07-31T21:12:48.955Z,29.06
2018-07-31T21:15:17.644Z,29.10
2018-07-31T21:17:52.654Z,29.08
2018-07-31T21:20:21.652Z,29.00
2018-07-31T21:22:50.412Z,28.74
2018-07-31T21:25:19.373Z,28.69
2018-07-31T21:27:48.357Z,28.66
2018-07-31T21:30:16.992Z,28.43
2018-07-31T21:32:46.909Z,28.11
2018-07-31T21:35:16.670Z,28.22
2018-07-31T21:37:46.110Z,28.29
2018-07-31T21:40:15.512Z,28.24
2018-07-31T21:42:44.476Z,28.13
2018-07-31T21:45:13.569Z,28.02
2018-07-31T21:47:42.209Z,28.01
2018-07-31T21:50:10.895Z,27.90
2018-07-31T21:52:39.555Z,27.83
2018-07-31T21:55:08.191Z,27.87
2018-07-31T21:57:36.825Z,27.81
2018-07-31T22:00:08.493Z,27.74
2018-07-31T22:02:37.938Z,27.74
2018-07-31T22:05:06.779Z,27.65
2018-07-31T22:07:35.803Z,27.48
2018-07-31T22:10:04.716Z,27.53
2018-07-31T22:12:33.344Z,27.53
2018-07-31T22:15:02.368Z,27.52
2018-07-31T22:17:31.016Z,27.49
2018-07-31T22:19:59.767Z,27.58
2018-07-31T22:22:28.548Z,27.61
2018-07-31T22:24:57.625Z,27.65
2018-07-31T22:27:26.184Z,27.69
2018-07-31T22:29:54.784Z,27.74
2018-07-31T22:32:23.776Z,27.80
2018-07-31T22:34:52.561Z,27.80
2018-07-31T22:37:22.155Z,27.82
2018-07-31T22:39:51.010Z,27.83
2018-07-31T22:42:20.290Z,27.81
2018-07-31T22:44:49.556Z,27.81
2018-07-31T22:47:18.532Z,27.72
2018-07-31T22:49:47.700Z,27.58
2018-07-31T22:52:16.675Z,27.58
2018-07-31T22:54:45.824Z,27.44
2018-07-31T22:57:14.890Z,27.38
2018-07-31T22:59:43.800Z,27.31
2018-07-31T23:02:12.588Z,27.22
2018-07-31T23:04:41.430Z,27.13
2018-07-31T23:07:10.144Z,27.12
2018-07-31T23:09:38.797Z,27.11
2018-07-31T23:12:08.343Z,27.06
2018-07-31T23:14:37.016Z,27.05
2018-07-31T23:17:05.887Z,27.05
2018-07-31T23:19:34.648Z,27.05
2018-07-31T23:22:03.549Z,26.99
2018-07-31T23:24:32.212Z,27.01
2018-07-31T23:27:01.194Z,26.98
2018-07-31T23:29:30.340Z,26.92
2018-07-31T23:31:59.113Z,26.91
2018-07-31T23:34:28.146Z,26.83
2018-07-31T23:36:56.755Z,26.63
2018-07-31T23:39:25.648Z,26.59
2018-07-31T23:41:54.267Z,26.58
2018-07-31T23:44:23.982Z,26.51
2018-07-31T23:46:52.740Z,26.45
2018-07-31T23:49:22.011Z,26.44
2018-07-31T23:51:50.875Z,26.28
2018-07-31T23:54:19.648Z,26.20
2018-07-31T23:56:48.618Z,26.23
2018-07-31T23:59:17.836Z,26.14
